sensor_id;sensor_type;location;lat;lon;timestamp;temperature;humidity
46400;DHT22;32104;50.838;4.388;2022-10-16T00:52:06;15.40;99.90
46400;DHT22;32104;50.838;4.388;2022-10-16T01:12:43;15.10;99.90
46400;DHT22;32104;50.838;4.388;2022-10-16T01:15:19;15.10;99.90
46400;DHT22;32104;50.838;4.388;2022-10-16T01:20:42;15.30;99.90
46400;DHT22;32104;50.838;4.388;2022-10-16T01:23:27;15.10;99.90
46400;DHT22;32104;50.838;4.388;2022-10-16T01:26:13;15.10;99.90
46400;DHT22;32104;50.838;4.388;2022-10-16T02:31:09;14.90;99.90
46400;DHT22;32104;50.838;4.388;2022-10-16T03:02:07;14.90;99.90
46400;DHT22;32104;50.838;4.388;2022-10-16T03:07:32;15.10;99.90
46400;DHT22;32104;50.838;4.388;2022-10-16T03:43:30;14.90;99.90
46400;DHT22;32104;50.838;4.388;2022-10-16T05:12:24;14.80;99.90
46400;DHT22;32104;50.838;4.388;2022-10-16T05:14:50;14.70;99.90
46400;DHT22;32104;50.838;4.388;2022-10-16T05:17:16;14.90;99.90
46400;DHT22;32104;50.838;4.388;2022-10-16T05:19:45;14.80;99.90
46400;DHT22;32104;50.838;4.388;2022-10-16T05:22:14;14.70;99.90
46400;DHT22;32104;50.838;4.388;2022-10-16T05:24:46;14.60;99.90
46400;DHT22;32104;50.838;4.388;2022-10-16T05:27:12;14.60;99.90
46400;DHT22;32104;50.838;4.388;2022-10-16T05:29:45;14.70;99.90
46400;DHT22;32104;50.838;4.388;2022-10-16T05:32:13;14.60;99.90
46400;DHT22;32104;50.838;4.388;2022-10-16T05:34:39;14.70;99.90
46400;DHT22;32104;50.838;4.388;2022-10-16T05:37:05;14.80;99.90
46400;DHT22;32104;50.838;4.388;2022-10-16T05:39:31;14.60;99.90
46400;DHT22;32104;50.838;4.388;2022-10-16T05:41:57;14.60;99.90
46400;DHT22;32104;50.838;4.388;2022-10-16T05:44:29;14.70;99.90
46400;DHT22;32104;50.838;4.388;2022-10-16T05:46:55;14.70;99.90
46400;DHT22;32104;50.838;4.388;2022-10-16T05:49:21;14.60;99.90
46400;DHT22;32104;50.838;4.388;2022-10-16T05:51:47;14.50;99.90
46400;DHT22;32104;50.838;4.388;2022-10-16T05:54:22;14.70;99.90
46400;DHT22;32104;50.838;4.388;2022-10-16T05:56:56;14.60;99.90
46400;DHT22;32104;50.838;4.388;2022-10-16T05:59:22;14.60;99.90
46400;DHT22;32104;50.838;4.388;2022-10-16T06:01:48;14.50;99.90
46400;DHT22;32104;50.838;4.388;2022-10-16T06:04:15;14.50;99.90
46400;DHT22;32104;50.838;4.388;2022-10-16T06:06:43;14.50;99.90
46400;DHT22;32104;50.838;4.388;2022-10-16T06:09:10;14.40;99.90
46400;DHT22;32104;50.838;4.388;2022-10-16T06:11:38;14.50;99.90
46400;DHT22;32104;50.838;4.388;2022-10-16T06:14:04;14.50;99.90
46400;DHT22;32104;50.838;4.388;2022-10-16T06:16:37;14.50;99.90
46400;DHT22;32104;50.838;4.388;2022-10-16T06:19:03;14.50;99.90
46400;DHT22;32104;50.838;4.388;2022-10-16T06:21:32;14.60;99.90
46400;DHT22;32104;50.838;4.388;2022-10-16T06:23:59;14.70;99.90
46400;DHT22;32104;50.838;4.388;2022-10-16T06:26:28;14.60;99.90
46400;DHT22;32104;50.838;4.388;2022-10-16T06:28:58;14.60;99.90
46400;DHT22;32104;50.838;4.388;2022-10-16T06:31:25;14.70;99.90
46400;DHT22;32104;50.838;4.388;2022-10-16T06:33:53;14.60;99.90
46400;DHT22;32104;50.838;4.388;2022-10-16T06:36:20;14.50;99.90
46400;DHT22;32104;50.838;4.388;2022-10-16T06:44:07;14.80;99.90
46400;DHT22;32104;50.838;4.388;2022-10-16T06:49:47;14.90;99.90
46400;DHT22;32104;50.838;4.388;2022-10-16T06:52:54;14.90;99.90
46400;DHT22;32104;50.838;4.388;2022-10-16T06:58:20;14.90;99.90
46400;DHT22;32104;50.838;4.388;2022-10-16T07:00:55;15.10;99.90
46400;DHT22;32104;50.838;4.388;2022-10-16T07:03:46;15.00;99.90
46400;DHT22;32104;50.838;4.388;2022-10-16T07:06:21;15.00;99.90
46400;DHT22;32104;50.838;4.388;2022-10-16T07:09:11;15.00;99.90
46400;DHT22;32104;50.838;4.388;2022-10-16T07:12:01;15.00;99.90
46400;DHT22;32104;50.838;4.388;2022-10-16T07:14:30;15.00;99.90
46400;DHT22;32104;50.838;4.388;2022-10-16T07:16:57;15.30;99.90
46400;DHT22;32104;50.838;4.388;2022-10-16T07:19:23;15.20;99.90
46400;DHT22;32104;50.838;4.388;2022-10-16T07:24:45;15.20;99.90
46400;DHT22;32104;50.838;4.388;2022-10-16T07:27:20;15.10;99.90
46400;DHT22;32104;50.838;4.388;2022-10-16T07:30:01;15.10;99.90
46400;DHT22;32104;50.838;4.388;2022-10-16T07:33:10;15.20;99.90
46400;DHT22;32104;50.838;4.388;2022-10-16T07:35:36;15.20;99.90
46400;DHT22;32104;50.838;4.388;2022-10-16T07:38:03;15.20;99.90
46400;DHT22;32104;50.838;4.388;2022-10-16T07:40:29;15.20;99.90
46400;DHT22;32104;50.838;4.388;2022-10-16T07:43:02;15.10;99.90
46400;DHT22;32104;50.838;4.388;2022-10-16T07:45:31;15.10;99.90
46400;DHT22;32104;50.838;4.388;2022-10-16T07:47:57;15.30;99.90
46400;DHT22;32104;50.838;4.388;2022-10-16T07:53:09;15.30;99.90
46400;DHT22;32104;50.838;4.388;2022-10-16T07:55:35;15.40;99.90
46400;DHT22;32104;50.838;4.388;2022-10-16T07:58:04;15.20;99.90
46400;DHT22;32104;50.838;4.388;2022-10-16T08:00:33;15.30;99.90
46400;DHT22;32104;50.838;4.388;2022-10-16T08:03:04;15.30;99.90
46400;DHT22;32104;50.838;4.388;2022-10-16T08:05:32;15.50;99.90
46400;DHT22;32104;50.838;4.388;2022-10-16T08:08:05;15.40;99.90
46400;DHT22;32104;50.838;4.388;2022-10-16T08:10:33;15.40;99.90
46400;DHT22;32104;50.838;4.388;2022-10-16T08:13:00;15.50;99.90
46400;DHT22;32104;50.838;4.388;2022-10-16T08:15:28;15.50;99.90
46400;DHT22;32104;50.838;4.388;2022-10-16T08:17:58;15.60;99.90
46400;DHT22;32104;50.838;4.388;2022-10-16T08:20:27;15.60;99.90
46400;DHT22;32104;50.838;4.388;2022-10-16T08:23:02;15.80;99.90
46400;DHT22;32104;50.838;4.388;2022-10-16T08:25:35;15.60;99.90
46400;DHT22;32104;50.838;4.388;2022-10-16T08:35:55;15.90;99.90
46400;DHT22;32104;50.838;4.388;2022-10-16T08:49:26;16.00;99.90
46400;DHT22;32104;50.838;4.388;2022-10-16T08:51:52;16.00;99.90
46400;DHT22;32104;50.838;4.388;2022-10-16T10:15:41;18.10;99.90
46400;DHT22;32104;50.838;4.388;2022-10-16T10:18:29;18.20;99.90
46400;DHT22;32104;50.838;4.388;2022-10-16T10:20:59;18.20;99.90
46400;DHT22;32104;50.838;4.388;2022-10-16T10:23:27;18.40;99.90
46400;DHT22;32104;50.838;4.388;2022-10-16T10:26:27;18.50;99.90
46400;DHT22;32104;50.838;4.388;2022-10-16T10:29:16;18.60;99.90
46400;DHT22;32104;50.838;4.388;2022-10-16T10:40:28;18.90;99.90
46400;DHT22;32104;50.838;4.388;2022-10-16T10:43:04;19.00;99.90
46400;DHT22;32104;50.838;4.388;2022-10-16T10:48:20;19.30;99.90
46400;DHT22;32104;50.838;4.388;2022-10-16T10:50:54;19.50;99.90
46400;DHT22;32104;50.838;4.388;2022-10-16T10:53:31;19.60;99.90
46400;DHT22;32104;50.838;4.388;2022-10-16T10:56:18;19.90;99.90
46400;DHT22;32104;50.838;4.388;2022-10-16T11:02:13;20.00;99.90
46400;DHT22;32104;50.838;4.388;2022-10-16T11:04:57;19.90;99.90
46400;DHT22;32104;50.838;4.388;2022-10-16T11:07:39;19.90;99.90
46400;DHT22;32104;50.838;4.388;2022-10-16T11:10:15;19.70;99.90
46400;DHT22;32104;50.838;4.388;2022-10-16T11:13:04;19.60;99.90
46400;DHT22;32104;50.838;4.388;2022-10-16T11:15:40;19.70;99.90
46400;DHT22;32104;50.838;4.388;2022-10-16T11:21:16;19.60;99.90
46400;DHT22;32104;50.838;4.388;2022-10-16T11:24:14;19.50;99.90
46400;DHT22;32104;50.838;4.388;2022-10-16T11:26:49;19.90;99.90
46400;DHT22;32104;50.838;4.388;2022-10-16T11:29:24;20.00;99.90
46400;DHT22;32104;50.838;4.388;2022-10-16T11:31:57;20.10;99.90
46400;DHT22;32104;50.838;4.388;2022-10-16T11:37:12;20.20;99.90
46400;DHT22;32104;50.838;4.388;2022-10-16T12:15:33;20.10;99.90
46400;DHT22;32104;50.838;4.388;2022-10-16T12:26:04;20.10;99.90
46400;DHT22;32104;50.838;4.388;2022-10-16T12:28:32;19.90;99.90
46400;DHT22;32104;50.838;4.388;2022-10-16T12:31:03;20.00;99.90
46400;DHT22;32104;50.838;4.388;2022-10-16T12:33:32;19.80;99.90
46400;DHT22;32104;50.838;4.388;2022-10-16T12:36:00;20.10;99.90
46400;DHT22;32104;50.838;4.388;2022-10-16T12:41:36;20.20;99.90
46400;DHT22;32104;50.838;4.388;2022-10-16T12:44:26;20.20;99.90
46400;DHT22;32104;50.838;4.388;2022-10-16T12:46:54;20.10;99.90
46400;DHT22;32104;50.838;4.388;2022-10-16T12:49:36;20.10;99.90
46400;DHT22;32104;50.838;4.388;2022-10-16T12:52:03;20.10;99.90
46400;DHT22;32104;50.838;4.388;2022-10-16T13:05:24;20.20;99.90
46400;DHT22;32104;50.838;4.388;2022-10-16T13:14:29;20.50;99.90
46400;DHT22;32104;50.838;4.388;2022-10-16T13:20:28;20.50;99.90
46400;DHT22;32104;50.838;4.388;2022-10-16T13:25:49;20.70;99.90
46400;DHT22;32104;50.838;4.388;2022-10-16T13:28:22;20.60;99.90
46400;DHT22;32104;50.838;4.388;2022-10-16T13:30:55;20.60;99.90
46400;DHT22;32104;50.838;4.388;2022-10-16T13:33:37;20.60;99.90
46400;DHT22;32104;50.838;4.388;2022-10-16T13:36:04;20.50;99.90
46400;DHT22;32104;50.838;4.388;2022-10-16T13:38:35;20.60;99.90
46400;DHT22;32104;50.838;4.388;2022-10-16T13:41:05;20.80;99.90
46400;DHT22;32104;50.838;4.388;2022-10-16T13:43:36;21.10;99.90
46400;DHT22;32104;50.838;4.388;2022-10-16T13:46:14;21.10;99.90
46400;DHT22;32104;50.838;4.388;2022-10-16T13:48:40;21.10;99.90
46400;DHT22;32104;50.838;4.388;2022-10-16T13:51:17;20.90;99.90
46400;DHT22;32104;50.838;4.388;2022-10-16T13:53:44;20.70;99.90
46400;DHT22;32104;50.838;4.388;2022-10-16T13:56:14;20.70;99.90
46400;DHT22;32104;50.838;4.388;2022-10-16T13:58:40;20.80;99.90
46400;DHT22;32104;50.838;4.388;2022-10-16T14:01:26;20.80;99.90
46400;DHT22;32104;50.838;4.388;2022-10-16T14:03:59;20.80;99.90
46400;DHT22;32104;50.838;4.388;2022-10-16T14:06:26;20.70;99.90
46400;DHT22;32104;50.838;4.388;2022-10-16T14:09:39;20.80;99.90
46400;DHT22;32104;50.838;4.388;2022-10-16T14:11:48;20.90;99.90
46400;DHT22;32104;50.838;4.388;2022-10-16T14:14:15;20.70;99.90
46400;DHT22;32104;50.838;4.388;2022-10-16T14:16:42;20.50;99.90
46400;DHT22;32104;50.838;4.388;2022-10-16T14:19:34;20.40;99.90
46400;DHT22;32104;50.838;4.388;2022-10-16T14:22:01;20.30;99.90
46400;DHT22;32104;50.838;4.388;2022-10-16T14:26:57;20.40;99.90
46400;DHT22;32104;50.838;4.388;2022-10-16T14:29:26;20.30;99.90
46400;DHT22;32104;50.838;4.388;2022-10-16T14:34:40;20.20;99.90
46400;DHT22;32104;50.838;4.388;2022-10-16T14:37:27;20.10;99.90
46400;DHT22;32104;50.838;4.388;2022-10-16T14:39:54;20.10;99.90
46400;DHT22;32104;50.838;4.388;2022-10-16T14:42:23;20.10;99.90
46400;DHT22;32104;50.838;4.388;2022-10-16T14:44:53;20.10;99.90
46400;DHT22;32104;50.838;4.388;2022-10-16T14:47:24;20.10;99.90
46400;DHT22;32104;50.838;4.388;2022-10-16T14:49:52;20.10;99.90
46400;DHT22;32104;50.838;4.388;2022-10-16T14:52:26;20.00;99.90
46400;DHT22;32104;50.838;4.388;2022-10-16T14:54:53;20.00;99.90
46400;DHT22;32104;50.838;4.388;2022-10-16T14:57:25;19.90;99.90
46400;DHT22;32104;50.838;4.388;2022-10-16T14:59:57;20.00;99.90
46400;DHT22;32104;50.838;4.388;2022-10-16T15:02:31;19.90;99.90
46400;DHT22;32104;50.838;4.388;2022-10-16T15:05:21;19.80;99.90
46400;DHT22;32104;50.838;4.388;2022-10-16T15:08:08;19.80;99.90
46400;DHT22;32104;50.838;4.388;2022-10-16T15:10:40;19.80;99.90
46400;DHT22;32104;50.838;4.388;2022-10-16T15:13:16;19.90;99.90
46400;DHT22;32104;50.838;4.388;2022-10-16T15:15:46;20.00;99.90
46400;DHT22;32104;50.838;4.388;2022-10-16T15:18:13;20.00;99.90
46400;DHT22;32104;50.838;4.388;2022-10-16T15:20:40;19.90;99.90
46400;DHT22;32104;50.838;4.388;2022-10-16T15:23:17;19.90;99.90
46400;DHT22;32104;50.838;4.388;2022-10-16T15:25:46;19.90;99.90
46400;DHT22;32104;50.838;4.388;2022-10-16T15:28:14;19.80;99.90
46400;DHT22;32104;50.838;4.388;2022-10-16T15:30:44;19.80;99.90
46400;DHT22;32104;50.838;4.388;2022-10-16T15:33:17;19.80;99.90
46400;DHT22;32104;50.838;4.388;2022-10-16T15:35:48;19.70;99.90
46400;DHT22;32104;50.838;4.388;2022-10-16T15:38:18;19.80;99.90
46400;DHT22;32104;50.838;4.388;2022-10-16T15:40:48;19.70;99.90
46400;DHT22;32104;50.838;4.388;2022-10-16T15:43:21;19.80;99.90
46400;DHT22;32104;50.838;4.388;2022-10-16T15:51:01;19.50;99.90
46400;DHT22;32104;50.838;4.388;2022-10-16T15:53:34;19.50;99.90
46400;DHT22;32104;50.838;4.388;2022-10-16T15:56:06;19.40;99.90
46400;DHT22;32104;50.838;4.388;2022-10-16T15:58:42;19.30;99.90
46400;DHT22;32104;50.838;4.388;2022-10-16T22:19:17;16.20;99.90
46400;DHT22;32104;50.838;4.388;2022-10-16T22:29:29;16.10;99.90
46400;DHT22;32104;50.838;4.388;2022-10-16T22:31:58;16.00;99.90
46400;DHT22;32104;50.838;4.388;2022-10-16T22:34:23;15.90;99.90
46400;DHT22;32104;50.838;4.388;2022-10-16T22:36:59;15.90;99.90
46400;DHT22;32104;50.838;4.388;2022-10-16T22:39:35;16.10;99.90
46400;DHT22;32104;50.838;4.388;2022-10-16T22:42:14;16.10;99.90
46400;DHT22;32104;50.838;4.388;2022-10-16T22:44:43;16.10;99.90
46400;DHT22;32104;50.838;4.388;2022-10-16T22:47:14;16.00;99.90
46400;DHT22;32104;50.838;4.388;2022-10-16T22:49:57;16.30;99.90
46400;DHT22;32104;50.838;4.388;2022-10-16T22:52:25;16.20;99.90
46400;DHT22;32104;50.838;4.388;2022-10-16T22:54:57;16.20;99.90
46400;DHT22;32104;50.838;4.388;2022-10-16T22:57:29;16.10;99.90
46400;DHT22;32104;50.838;4.388;2022-10-16T22:59:55;16.20;99.90
46400;DHT22;32104;50.838;4.388;2022-10-16T23:02:24;16.10;99.90
46400;DHT22;32104;50.838;4.388;2022-10-16T23:04:52;16.20;99.90
46400;DHT22;32104;50.838;4.388;2022-10-16T23:07:23;16.10;99.90
46400;DHT22;32104;50.838;4.388;2022-10-16T23:09:55;16.20;99.90
46400;DHT22;32104;50.838;4.388;2022-10-16T23:12:32;16.30;99.90
46400;DHT22;32104;50.838;4.388;2022-10-16T23:15:00;16.20;99.90
46400;DHT22;32104;50.838;4.388;2022-10-16T23:17:46;16.10;99.90
46400;DHT22;32104;50.838;4.388;2022-10-16T23:20:19;16.20;99.90
46400;DHT22;32104;50.838;4.388;2022-10-16T23:22:53;16.20;99.90
46400;DHT22;32104;50.838;4.388;2022-10-16T23:25:19;16.30;99.90
46400;DHT22;32104;50.838;4.388;2022-10-16T23:27:48;16.30;99.90
46400;DHT22;32104;50.838;4.388;2022-10-16T23:30:22;16.20;99.90
46400;DHT22;32104;50.838;4.388;2022-10-16T23:32:51;16.10;99.90
46400;DHT22;32104;50.838;4.388;2022-10-16T23:35:19;16.10;99.90
46400;DHT22;32104;50.838;4.388;2022-10-16T23:37:54;16.00;99.90
46400;DHT22;32104;50.838;4.388;2022-10-16T23:40:23;16.20;99.90
46400;DHT22;32104;50.838;4.388;2022-10-16T23:42:57;16.30;99.90
46400;DHT22;32104;50.838;4.388;2022-10-16T23:45:34;16.20;99.90
46400;DHT22;32104;50.838;4.388;2022-10-16T23:48:05;16.10;99.90
46400;DHT22;32104;50.838;4.388;2022-10-16T23:50:31;16.30;99.90
46400;DHT22;32104;50.838;4.388;2022-10-16T23:52:59;16.20;99.90
46400;DHT22;32104;50.838;4.388;2022-10-16T23:55:25;16.20;99.90
46400;DHT22;32104;50.838;4.388;2022-10-16T23:57:50;16.30;99.90
